Time;durP1;ratioP1;P1;durP2;ratioP2;P2;SDS_P1;SDS_P2;PMS_P1;PMS_P2;Temp;Humidity;BMP_temperature;BMP_pressure;BME280_temperature;BME280_humidity;BME280_pressure;Samples;Min_cycle;Max_cycle;Signal;HPM_P1;HPM_P2
2023/05/13 00:01:00;;;;;;;14.70;10.00;;;;;;;9.36;100.00;101760.95;107124;1246;61811;-74
2023/05/13 00:03:29;;;;;;;14.90;9.90;;;;;;;9.34;100.00;101761.35;107202;1245;64567;-72
2023/05/13 00:05:59;;;;;;;19.70;10.90;;;;;;;9.34;100.00;101759.27;107170;1246;64065;-73
2023/05/13 00:08:28;;;;;;;16.50;9.70;;;;;;;9.37;100.00;101759.48;107294;1244;58418;-73
2023/05/13 00:10:57;;;;;;;15.70;9.70;;;;;;;9.38;100.00;101755.44;107151;1244;73109;-71
2023/05/13 00:13:26;;;;;;;14.50;9.80;;;;;;;9.40;100.00;101756.20;107124;1248;62013;-71
2023/05/13 00:15:55;;;;;;;16.00;9.70;;;;;;;9.43;100.00;101756.92;107158;1245;69507;-70
2023/05/13 00:18:24;;;;;;;14.70;10.50;;;;;;;9.42;100.00;101755.89;107181;1244;73567;-71
2023/05/13 00:20:53;;;;;;;18.70;10.70;;;;;;;9.40;100.00;101755.12;107095;1248;59173;-70
2023/05/13 00:23:22;;;;;;;17.70;10.90;;;;;;;9.37;100.00;101758.24;107136;1255;58641;-70
2023/05/13 00:25:51;;;;;;;14.70;9.60;;;;;;;9.36;100.00;101756.41;107167;1256;61953;-70
2023/05/13 00:28:20;;;;;;;21.40;10.30;;;;;;;9.30;100.00;101752.87;107174;1245;61136;-71
2023/05/13 00:30:49;;;;;;;15.00;9.70;;;;;;;9.24;100.00;101752.28;107092;1245;59385;-70
2023/05/13 00:33:18;;;;;;;15.60;10.60;;;;;;;9.20;100.00;101749.55;107112;1248;62657;-71
2023/05/13 00:35:47;;;;;;;13.70;10.00;;;;;;;9.15;100.00;101753.80;107085;1248;59070;-70
2023/05/13 00:38:16;;;;;;;12.70;9.70;;;;;;;9.09;100.00;101749.04;107170;1253;60840;-70
2023/05/13 00:40:46;;;;;;;15.70;10.60;;;;;;;9.07;100.00;101746.37;107101;1248;71943;-71
2023/05/13 00:43:16;;;;;;;13.80;9.50;;;;;;;9.08;100.00;101749.09;107131;1248;61630;-71
2023/05/13 00:45:44;;;;;;;17.90;10.50;;;;;;;9.08;100.00;101749.42;107168;1245;69686;-70
2023/05/13 00:48:14;;;;;;;20.50;9.80;;;;;;;9.02;100.00;101749.38;107101;1249;73624;-71
2023/05/13 00:50:43;;;;;;;15.10;10.00;;;;;;;8.98;100.00;101744.20;107086;1248;62758;-70
2023/05/13 00:53:12;;;;;;;16.80;9.90;;;;;;;8.94;100.00;101743.67;107157;1247;57642;-71
2023/05/13 00:55:43;;;;;;;17.20;10.10;;;;;;;8.88;100.00;101746.77;107134;1246;62455;-70
2023/05/13 00:58:13;;;;;;;16.00;10.40;;;;;;;8.89;100.00;101746.73;107077;1249;60883;-70
2023/05/13 01:01:13;;;;;;;15.20;10.60;;;;;;;8.91;100.00;101750.65;106992;1248;70900;-69
2023/05/13 01:04:27;;;;;;;16.30;10.40;;;;;;;8.91;100.00;101751.50;107205;1248;74602;-69
2023/05/13 01:07:40;;;;;;;17.00;9.50;;;;;;;8.88;100.00;101753.58;108694;1244;63106;-69
2023/05/13 01:10:27;;;;;;;15.30;9.50;;;;;;;8.78;100.00;101755.92;107346;1246;58929;-70
2023/05/13 01:13:03;;;;;;;18.50;10.70;;;;;;;8.71;100.00;101755.77;107129;1249;71648;-70
2023/05/13 01:15:34;;;;;;;15.50;10.30;;;;;;;8.69;100.00;101750.82;107149;1245;61335;-71
2023/05/13 01:18:39;;;;;;;15.80;10.10;;;;;;;8.71;100.00;101751.61;107326;1246;60086;-71
2023/05/13 01:21:10;;;;;;;17.80;10.40;;;;;;;8.71;100.00;101749.66;107248;1244;73840;-70
2023/05/13 01:23:39;;;;;;;15.20;10.30;;;;;;;8.72;100.00;101746.15;107084;1256;58857;-71
2023/05/13 01:26:08;;;;;;;13.20;9.50;;;;;;;8.73;100.00;101744.39;107393;1246;58914;-70
2023/05/13 01:28:37;;;;;;;20.60;10.70;;;;;;;8.71;100.00;101745.71;107327;1245;71141;-70
2023/05/13 01:31:09;;;;;;;15.80;10.10;;;;;;;8.70;100.00;101748.36;107373;1245;61916;-70
2023/05/13 01:33:40;;;;;;;14.80;11.00;;;;;;;8.68;100.00;101748.10;107220;1256;59031;-70
2023/05/13 01:36:09;;;;;;;15.60;10.10;;;;;;;8.66;100.00;101747.34;107131;1246;62309;-70
2023/05/13 01:38:40;;;;;;;18.30;10.40;;;;;;;8.62;100.00;101744.05;107047;1248;62886;-71
2023/05/13 01:41:09;;;;;;;14.70;9.80;;;;;;;8.54;100.00;101742.70;107162;1244;60518;-72
2023/05/13 01:43:38;;;;;;;14.60;9.80;;;;;;;8.49;100.00;101740.65;107243;1246;62906;-69
2023/05/13 01:46:14;;;;;;;17.90;10.50;;;;;;;8.47;100.00;101734.86;107284;1253;61875;-69
2023/05/13 01:48:43;;;;;;;15.50;10.30;;;;;;;8.49;100.00;101734.56;107116;1252;69723;-69
2023/05/13 01:51:12;;;;;;;15.80;11.00;;;;;;;8.53;100.00;101737.55;107267;1244;74710;-69
2023/05/13 01:53:41;;;;;;;15.00;10.70;;;;;;;8.55;100.00;101737.61;107115;1246;62846;-69
2023/05/13 01:56:10;;;;;;;15.40;10.00;;;;;;;8.57;100.00;101740.14;107110;1256;62240;-69
2023/05/13 01:58:39;;;;;;;15.50;10.50;;;;;;;8.56;100.00;101742.59;107266;1246;74372;-69
2023/05/13 02:01:08;;;;;;;15.10;10.40;;;;;;;8.55;100.00;101741.95;107114;1252;71773;-71
2023/05/13 02:03:37;;;;;;;16.30;11.10;;;;;;;8.53;100.00;101743.23;107194;1245;70997;-70
2023/05/13 02:06:07;;;;;;;18.60;10.60;;;;;;;8.49;100.00;101742.55;107233;1245;74887;-71
2023/05/13 02:08:36;;;;;;;15.80;10.00;;;;;;;8.53;100.00;101743.11;106921;1248;62581;-70
2023/05/13 02:11:05;;;;;;;16.80;9.90;;;;;;;8.55;100.00;101741.61;107028;1244;60411;-70
2023/05/13 02:13:34;;;;;;;14.00;10.00;;;;;;;8.56;100.00;101738.75;106957;1245;74479;-69
2023/05/13 02:16:03;;;;;;;14.80;10.60;;;;;;;8.59;100.00;101740.91;107276;1253;71497;-68
2023/05/13 02:18:32;;;;;;;17.20;11.30;;;;;;;8.61;100.00;101741.99;107145;1256;59449;-72
2023/05/13 02:21:01;;;;;;;16.10;10.50;;;;;;;8.63;100.00;101745.20;107114;1245;63420;-70
2023/05/13 02:23:30;;;;;;;14.90;10.00;;;;;;;8.64;100.00;101745.88;107150;1253;61776;-71
2023/05/13 02:25:59;;;;;;;15.50;10.60;;;;;;;8.66;100.00;101747.33;107290;1248;58069;-70
2023/05/13 02:28:28;;;;;;;16.00;10.60;;;;;;;8.67;100.00;101746.21;107249;1247;71626;-71
2023/05/13 02:30:57;;;;;;;16.00;10.70;;;;;;;8.69;100.00;101744.42;107356;1245;62076;-70
2023/05/13 02:33:26;;;;;;;20.50;11.30;;;;;;;8.71;100.00;101742.75;107238;1256;60976;-69
2023/05/13 02:35:55;;;;;;;15.50;11.10;;;;;;;8.74;100.00;101742.08;107187;1244;72404;-70
2023/05/13 02:38:24;;;;;;;16.10;10.60;;;;;;;8.77;100.00;101743.83;107113;1248;59044;-71
2023/05/13 02:40:53;;;;;;;18.10;11.50;;;;;;;8.78;100.00;101744.32;107270;1255;58969;-70
2023/05/13 02:43:26;;;;;;;18.80;11.70;;;;;;;8.81;100.00;101744.00;107111;1245;73588;-69
2023/05/13 02:45:57;;;;;;;15.80;10.80;;;;;;;8.83;100.00;101745.98;107052;1248;60771;-70
2023/05/13 02:48:26;;;;;;;20.80;11.30;;;;;;;8.84;100.00;101746.64;107266;1245;59749;-71
2023/05/13 02:50:55;;;;;;;18.50;11.50;;;;;;;8.83;100.00;101747.00;107084;1253;62710;-71
2023/05/13 02:53:24;;;;;;;13.90;10.60;;;;;;;8.86;100.00;101750.02;107173;1244;59127;-71
2023/05/13 02:55:56;;;;;;;17.70;12.20;;;;;;;8.89;100.00;101747.23;107138;1244;61150;-71
2023/05/13 02:58:26;;;;;;;14.90;11.40;;;;;;;8.90;100.00;101748.23;107167;1245;63615;-72
2023/05/13 03:00:55;;;;;;;16.60;11.00;;;;;;;8.94;100.00;101745.79;106947;1253;61133;-70
2023/05/13 03:03:25;;;;;;;17.70;11.60;;;;;;;8.96;100.00;101744.68;107034;1256;69997;-72
2023/05/13 03:05:54;;;;;;;16.20;10.90;;;;;;;8.97;100.00;101745.11;107027;1256;63425;-71
2023/05/13 03:08:23;;;;;;;17.40;10.60;;;;;;;8.96;100.00;101744.30;107254;1246;59171;-71
2023/05/13 03:10:52;;;;;;;22.90;11.70;;;;;;;8.94;100.00;101745.98;107234;1256;58510;-71
2023/05/13 03:13:21;;;;;;;14.30;9.20;;;;;;;8.91;100.00;101748.58;107262;1246;62440;-71
2023/05/13 03:15:50;;;;;;;14.50;9.60;;;;;;;8.92;100.00;101750.58;107110;1246;61285;-70
2023/05/13 03:18:19;;;;;;;13.90;9.40;;;;;;;8.83;100.00;101752.06;107181;1255;59169;-70
2023/05/13 03:20:48;;;;;;;15.70;10.00;;;;;;;8.72;100.00;101755.54;107242;1251;73418;-69
2023/05/13 03:23:18;;;;;;;14.20;9.80;;;;;;;8.65;100.00;101757.11;107266;1245;63774;-69
2023/05/13 03:25:48;;;;;;;17.10;11.40;;;;;;;8.59;100.00;101762.06;107321;1242;59139;-69
2023/05/13 03:28:17;;;;;;;19.00;10.80;;;;;;;8.52;100.00;101763.11;107282;1255;62610;-69
2023/05/13 03:30:46;;;;;;;20.40;11.90;;;;;;;8.52;100.00;101763.98;107277;1253;61213;-71
2023/05/13 03:33:18;;;;;;;18.70;11.30;;;;;;;8.56;100.00;101764.80;107294;1253;59492;-70
2023/05/13 03:35:48;;;;;;;16.30;10.20;;;;;;;8.64;100.00;101763.23;107105;1255;62712;-71
2023/05/13 03:38:20;;;;;;;17.00;11.20;;;;;;;8.74;100.00;101763.93;107223;1249;63051;-71
2023/05/13 03:40:49;;;;;;;16.30;11.00;;;;;;;8.81;100.00;101766.42;108178;1245;59053;-69
2023/05/13 03:43:18;;;;;;;16.30;10.10;;;;;;;8.82;100.00;101767.21;107286;1245;73522;-71
2023/05/13 03:45:52;;;;;;;19.60;11.50;;;;;;;8.87;100.00;101767.52;107233;1246;71703;-72
2023/05/13 03:48:22;;;;;;;17.40;11.70;;;;;;;8.89;100.00;101767.73;107086;1249;70686;-70
2023/05/13 03:50:52;;;;;;;18.20;10.90;;;;;;;8.92;100.00;101771.93;106935;1248;72190;-71
2023/05/13 03:53:20;;;;;;;19.00;11.80;;;;;;;8.94;100.00;101766.48;107123;1245;62490;-69
2023/05/13 03:55:50;;;;;;;20.60;12.60;;;;;;;8.94;100.00;101767.48;107059;1244;61010;-69
2023/05/13 03:58:20;;;;;;;19.50;11.00;;;;;;;8.98;100.00;101768.89;107242;1253;73700;-69
2023/05/13 04:00:49;;;;;;;19.60;11.60;;;;;;;9.10;100.00;101767.98;107345;1246;61179;-70
2023/05/13 04:03:18;;;;;;;20.50;11.40;;;;;;;9.16;100.00;101769.41;107343;1251;59337;-70
2023/05/13 04:05:50;;;;;;;20.50;12.10;;;;;;;9.25;100.00;101772.95;107278;1255;63054;-71
2023/05/13 04:08:19;;;;;;;22.40;12.40;;;;;;;9.35;100.00;101773.84;107317;1245;59034;-72
2023/05/13 04:10:49;;;;;;;17.70;11.10;;;;;;;9.41;100.00;101771.60;107328;1245;57908;-71
2023/05/13 04:13:19;;;;;;;16.80;11.80;;;;;;;9.56;100.00;101778.34;107314;1245;73061;-71
2023/05/13 04:15:48;;;;;;;20.40;11.70;;;;;;;9.65;100.00;101776.84;107167;1246;72592;-71
2023/05/13 04:18:16;;;;;;;19.00;12.10;;;;;;;9.74;100.00;101778.41;107314;1255;71466;-71
2023/05/13 04:20:45;;;;;;;20.40;13.10;;;;;;;9.84;100.00;101778.60;107117;1241;72860;-71
2023/05/13 04:23:14;;;;;;;25.20;12.40;;;;;;;9.94;100.00;101779.67;107003;1248;59112;-71
2023/05/13 04:25:52;;;;;;;20.20;11.80;;;;;;;10.06;100.00;101782.14;107191;1245;58990;-71
2023/05/13 04:28:21;;;;;;;20.90;12.30;;;;;;;10.16;100.00;101781.94;107110;1253;62019;-71
2023/05/13 04:30:51;;;;;;;21.50;11.50;;;;;;;10.19;100.00;101784.74;107170;1251;62795;-71
2023/05/13 04:33:20;;;;;;;21.80;12.50;;;;;;;10.23;100.00;101783.68;106990;1255;70409;-69
2023/05/13 04:35:50;;;;;;;22.00;11.90;;;;;;;10.27;100.00;101788.35;107197;1245;73889;-70
2023/05/13 04:38:18;;;;;;;16.40;11.10;;;;;;;10.30;100.00;101790.65;107234;1248;61840;-71
2023/05/13 04:40:47;;;;;;;15.30;9.50;;;;;;;10.28;100.00;101793.89;107302;1245;61632;-71
2023/05/13 04:43:22;;;;;;;16.70;10.10;;;;;;;10.22;100.00;101795.60;107145;1245;62419;-71
2023/05/13 04:45:57;;;;;;;15.60;10.60;;;;;;;10.13;100.00;101794.10;107180;1252;61187;-70
2023/05/13 04:48:26;;;;;;;14.40;9.60;;;;;;;10.08;100.00;101797.55;107047;1245;59303;-71
2023/05/13 04:50:58;;;;;;;17.80;11.20;;;;;;;10.14;100.00;101798.42;107124;1246;73947;-70
2023/05/13 04:53:27;;;;;;;16.00;10.90;;;;;;;10.21;100.00;101802.23;107097;1244;59010;-70
2023/05/13 04:55:59;;;;;;;16.10;11.60;;;;;;;10.25;100.00;101802.92;107224;1255;57904;-70
2023/05/13 04:58:30;;;;;;;17.30;10.80;;;;;;;10.28;100.00;101804.86;107286;1245;71947;-69
2023/05/13 05:00:59;;;;;;;14.80;10.60;;;;;;;10.31;100.00;101804.30;107273;1241;72448;-70
2023/05/13 05:03:28;;;;;;;18.90;12.00;;;;;;;10.41;100.00;101805.58;106852;1254;645407;-70
2023/05/13 05:05:58;;;;;;;19.90;11.40;;;;;;;10.49;100.00;101807.91;107353;1254;64452;-68
2023/05/13 05:08:27;;;;;;;19.30;13.60;;;;;;;10.54;100.00;101807.11;107252;1245;62226;-70
2023/05/13 05:11:00;;;;;;;18.90;13.20;;;;;;;10.72;100.00;101808.71;107352;1245;61572;-71
2023/05/13 05:13:30;;;;;;;23.70;14.00;;;;;;;10.83;100.00;101809.31;107338;1254;63721;-72
2023/05/13 05:16:00;;;;;;;27.30;14.50;;;;;;;11.07;100.00;101811.98;107363;1241;71432;-72
2023/05/13 05:18:30;;;;;;;19.80;13.20;;;;;;;11.30;100.00;101812.38;107292;1246;60400;-69
2023/05/13 05:20:59;;;;;;;19.90;12.20;;;;;;;11.51;100.00;101812.57;107260;1255;64740;-70
2023/05/13 05:23:30;;;;;;;21.60;12.40;;;;;;;11.60;100.00;101814.85;107360;1246;59084;-70
2023/05/13 05:26:00;;;;;;;17.80;11.40;;;;;;;11.60;100.00;101810.83;107302;1245;60414;-72
2023/05/13 05:28:42;;;;;;;17.80;10.90;;;;;;;11.59;100.00;101812.46;107308;1245;73342;-71
2023/05/13 05:31:12;;;;;;;22.00;13.30;;;;;;;11.52;100.00;101808.85;107164;1255;62082;-72
2023/05/13 05:33:41;;;;;;;25.50;13.60;;;;;;;11.48;100.00;101810.66;107262;1247;70017;-70
2023/05/13 05:36:10;;;;;;;20.60;13.20;;;;;;;11.51;100.00;101811.19;107087;1247;63304;-72
2023/05/13 05:38:40;;;;;;;20.40;13.00;;;;;;;11.66;100.00;101813.44;107238;1255;59028;-72
2023/05/13 05:41:09;;;;;;;18.40;11.20;;;;;;;11.87;100.00;101816.02;107323;1252;60405;-71
2023/05/13 05:43:38;;;;;;;19.40;12.50;;;;;;;11.87;100.00;101815.02;107134;1241;72947;-71
2023/05/13 05:46:08;;;;;;;21.60;12.20;;;;;;;11.86;100.00;101814.88;107389;1246;60883;-71
2023/05/13 05:48:37;;;;;;;21.70;14.10;;;;;;;11.84;100.00;101816.73;107288;1246;61875;-71
2023/05/13 05:51:07;;;;;;;20.50;13.70;;;;;;;11.85;100.00;101818.08;107303;1245;73056;-70
2023/05/13 05:53:36;;;;;;;24.10;13.00;;;;;;;11.88;100.00;101823.15;107320;1246;62501;-70
2023/05/13 05:56:07;;;;;;;19.60;11.10;;;;;;;11.90;100.00;101826.64;107306;1251;61238;-70
2023/05/13 05:58:36;;;;;;;22.30;13.50;;;;;;;11.85;100.00;101824.85;107257;1255;74045;-71
2023/05/13 06:01:05;;;;;;;20.70;13.00;;;;;;;11.84;100.00;101823.17;107150;1241;72366;-72
2023/05/13 06:03:34;;;;;;;23.50;13.80;;;;;;;12.04;100.00;101820.40;107333;1246;60008;-73
2023/05/13 06:06:04;;;;;;;21.80;13.60;;;;;;;12.09;100.00;101823.06;107616;1254;73895;-71
2023/05/13 06:08:33;;;;;;;26.50;13.90;;;;;;;12.23;100.00;101826.60;107414;1253;60922;-71
2023/05/13 06:11:02;;;;;;;22.80;13.60;;;;;;;12.50;100.00;101825.64;107223;1252;58817;-71
2023/05/13 06:13:31;;;;;;;24.40;12.70;;;;;;;12.67;99.82;101821.91;107506;1245;64361;-77
2023/05/13 06:16:00;;;;;;;18.20;12.80;;;;;;;12.85;98.31;101821.30;107380;1248;60849;-75
2023/05/13 06:18:29;;;;;;;21.20;13.50;;;;;;;13.00;99.22;101822.23;107420;1251;59802;-74
2023/05/13 16:06:06;;;;;;;9.00;5.00;;;;;;;21.09;34.51;101680.17;104565;1280;600609;-84
2023/05/13 16:08:35;;;;;;;6.70;4.30;;;;;;;21.01;34.89;101680.15;106967;1254;59076;-78
2023/05/13 16:11:04;;;;;;;8.60;3.80;;;;;;;20.88;35.29;101678.80;106936;1251;58388;-87
2023/05/13 16:13:33;;;;;;;6.90;4.20;;;;;;;20.74;35.56;101681.09;107453;1252;61357;-84
2023/05/13 16:16:02;;;;;;;8.40;4.60;;;;;;;20.61;36.04;101685.42;107035;1251;61497;-83
2023/05/13 16:18:31;;;;;;;7.40;3.70;;;;;;;20.36;36.95;101685.09;107079;1250;70080;-83
2023/05/13 16:21:00;;;;;;;10.50;4.20;;;;;;;19.87;38.70;101689.10;106782;1248;63770;-82
2023/05/13 16:23:28;;;;;;;7.00;3.60;;;;;;;19.86;39.13;101692.19;106953;1246;60905;-84
2023/05/13 16:25:57;;;;;;;8.70;3.80;;;;;;;19.59;38.88;101690.05;106990;1248;59090;-87
2023/05/13 16:28:27;;;;;;;10.70;4.40;;;;;;;19.39;41.89;101692.47;107329;1247;71930;-82
2023/05/13 16:30:57;;;;;;;10.10;4.40;;;;;;;19.51;40.73;101690.58;107375;1246;71850;-83
2023/05/13 16:33:27;;;;;;;8.80;4.80;;;;;;;19.28;41.43;101694.31;107240;1248;60349;-90
2023/05/13 16:35:56;;;;;;;8.50;4.30;;;;;;;19.28;40.81;101690.13;107031;1248;73906;-84
2023/05/13 16:38:25;;;;;;;10.00;4.90;;;;;;;18.91;41.96;101693.38;107135;1248;59147;-87
2023/05/13 16:40:55;;;;;;;12.40;5.30;;;;;;;18.87;42.53;101691.83;107210;1247;62193;-79
2023/05/13 16:43:24;;;;;;;5.60;3.70;;;;;;;18.82;42.87;101690.66;106946;1247;72871;-81
2023/05/13 16:45:52;;;;;;;8.60;4.50;;;;;;;18.67;43.92;101694.89;106926;1248;72575;-80
2023/05/13 16:48:21;;;;;;;7.00;3.80;;;;;;;18.45;45.73;101700.27;106911;1248;59943;-83
2023/05/13 16:50:50;;;;;;;10.30;4.50;;;;;;;18.20;47.17;101700.13;107018;1248;63255;-84
2023/05/13 16:53:21;;;;;;;8.40;3.70;;;;;;;17.93;48.68;101704.64;106876;1248;59148;-80
2023/05/13 16:55:50;;;;;;;7.00;3.50;;;;;;;17.67;50.22;101705.87;106991;1245;60389;-83
2023/05/13 16:58:19;;;;;;;6.90;3.40;;;;;;;17.46;50.35;101704.70;106783;1247;72570;-77
2023/05/13 17:00:47;;;;;;;7.00;4.00;;;;;;;17.32;51.11;101708.52;107251;1259;72618;-80
2023/05/13 17:03:16;;;;;;;8.50;3.60;;;;;;;17.19;52.30;101710.67;106832;1247;70495;-80
2023/05/13 17:05:45;;;;;;;10.10;3.80;;;;;;;17.05;53.72;101711.67;106820;1248;73824;-79
2023/05/13 17:08:17;;;;;;;7.80;3.40;;;;;;;16.89;54.24;101723.36;106881;1248;61469;-79
2023/05/13 17:10:46;;;;;;;8.30;3.90;;;;;;;16.73;54.66;101723.16;106782;1248;59047;-80
2023/05/13 17:13:15;;;;;;;7.50;3.50;;;;;;;16.62;55.72;101721.20;106889;1248;61726;-80
2023/05/13 17:15:46;;;;;;;14.30;4.60;;;;;;;16.49;56.46;101726.85;106813;1248;62001;-79
2023/05/13 17:18:15;;;;;;;6.70;4.20;;;;;;;16.34;57.13;101724.32;106855;1248;69608;-77
2023/05/13 17:20:44;;;;;;;10.10;4.00;;;;;;;16.21;56.97;101728.03;106709;1249;73571;-77
2023/05/13 17:23:15;;;;;;;8.60;4.50;;;;;;;16.11;57.02;101732.48;106912;1248;59004;-77
2023/05/13 17:25:44;;;;;;;10.30;4.60;;;;;;;16.05;57.78;101734.36;106827;1259;57640;-81
2023/05/13 17:28:14;;;;;;;9.40;4.70;;;;;;;15.95;57.56;101738.01;106925;1258;72573;-78
2023/05/13 17:30:42;;;;;;;15.10;5.20;;;;;;;15.86;60.23;101736.98;106762;1259;72720;-81
2023/05/13 17:33:11;;;;;;;10.00;4.60;;;;;;;15.83;60.60;101739.14;106986;1248;70444;-82
2023/05/13 17:35:40;;;;;;;11.80;5.10;;;;;;;15.81;61.02;101738.22;107045;1248;65703;-78
2023/05/13 17:38:09;;;;;;;10.50;5.10;;;;;;;15.77;61.59;101739.23;107807;1248;59246;-80
2023/05/13 17:40:38;;;;;;;10.40;5.90;;;;;;;15.74;61.83;101741.41;107308;1247;60375;-80
2023/05/13 17:43:07;;;;;;;9.10;5.60;;;;;;;15.71;62.11;101743.20;107104;1247;72722;-84
2023/05/13 17:45:36;;;;;;;9.10;4.70;;;;;;;15.70;61.96;101744.85;107523;1248;73005;-78
2023/05/13 17:48:05;;;;;;;12.20;5.60;;;;;;;15.73;61.50;101745.34;107212;1249;60699;-77
2023/05/13 17:50:34;;;;;;;11.30;5.10;;;;;;;15.65;61.68;101748.42;106962;1248;64292;-78
2023/05/13 17:53:03;;;;;;;15.30;7.50;;;;;;;15.48;61.84;101752.02;107099;1248;58412;-78
2023/05/13 17:55:32;;;;;;;10.90;7.10;;;;;;;15.37;63.20;101751.27;107346;1247;57338;-78
2023/05/13 17:58:00;;;;;;;12.70;6.30;;;;;;;15.31;63.66;101751.73;107287;1247;72669;-78
2023/05/13 18:00:29;;;;;;;14.90;5.90;;;;;;;15.25;64.15;101751.65;107311;1247;72535;-74
2023/05/13 18:02:58;;;;;;;11.60;6.50;;;;;;;15.23;63.08;101753.26;107347;1257;72178;-77
2023/05/13 18:05:27;;;;;;;14.10;8.20;;;;;;;15.18;62.26;101751.97;107057;1248;63637;-78
2023/05/13 18:07:56;;;;;;;19.50;9.70;;;;;;;15.11;63.25;101752.67;107159;1251;58233;-78
2023/05/13 18:10:28;;;;;;;13.40;8.40;;;;;;;15.05;63.78;101756.43;107341;1250;58241;-77
2023/05/13 18:12:57;;;;;;;9.30;6.10;;;;;;;15.03;62.32;101758.89;107108;1247;73581;-78
2023/05/13 18:15:25;;;;;;;10.40;5.50;;;;;;;15.02;62.27;101761.58;107227;1257;62180;-73
2023/05/13 18:17:54;;;;;;;10.80;4.80;;;;;;;15.01;62.47;101762.89;107123;1249;59950;-72
2023/05/13 18:20:23;;;;;;;8.40;4.90;;;;;;;14.99;62.44;101764.46;106719;1248;73568;-74
2023/05/13 18:22:52;;;;;;;9.90;5.40;;;;;;;14.96;62.25;101769.42;107152;1247;59003;-73
2023/05/13 18:25:21;;;;;;;12.90;7.10;;;;;;;14.89;63.68;101769.28;107135;1247;61282;-72
2023/05/13 18:27:50;;;;;;;9.40;6.00;;;;;;;14.78;66.78;101770.04;106976;1248;72969;-78
2023/05/13 18:30:19;;;;;;;10.40;6.00;;;;;;;14.71;66.81;101770.77;107165;1248;72346;-77
2023/05/13 18:32:49;;;;;;;8.40;5.30;;;;;;;14.63;65.63;101770.09;107070;1248;68456;-79
2023/05/13 18:35:20;;;;;;;10.60;4.70;;;;;;;14.55;65.82;101767.89;107048;1252;73188;-75
2023/05/13 18:37:49;;;;;;;8.50;5.10;;;;;;;14.48;65.86;101761.88;107096;1248;61747;-74
2023/05/13 18:40:18;;;;;;;9.30;5.80;;;;;;;14.44;66.57;101760.77;106991;1247;62022;-77
2023/05/13 18:42:47;;;;;;;9.00;5.60;;;;;;;14.40;66.94;101763.17;107257;1248;62560;-72
2023/05/13 18:45:16;;;;;;;14.20;7.20;;;;;;;14.36;67.17;101765.19;107185;1247;70946;-72
2023/05/13 18:47:45;;;;;;;12.30;7.00;;;;;;;14.32;67.67;101766.71;106782;1251;61050;-72
2023/05/13 18:50:14;;;;;;;14.40;7.10;;;;;;;14.29;67.59;101767.63;106790;1248;63073;-73
2023/05/13 18:52:43;;;;;;;15.60;6.30;;;;;;;14.24;67.27;101770.39;107103;1247;60937;-71
2023/05/13 18:55:11;;;;;;;14.00;6.20;;;;;;;14.19;66.65;101770.61;106621;1251;61644;-72
2023/05/13 18:57:40;;;;;;;14.70;6.90;;;;;;;14.08;68.12;101766.99;107204;1248;63619;-72
2023/05/13 19:00:10;;;;;;;9.60;5.50;;;;;;;13.97;69.67;101768.61;107065;1248;62191;-72
2023/05/13 19:02:38;;;;;;;9.10;5.20;;;;;;;13.88;70.67;101769.80;107139;1248;70524;-72
2023/05/13 19:05:08;;;;;;;12.30;5.60;;;;;;;13.79;71.67;101768.52;107153;1247;74310;-73
2023/05/13 19:07:36;;;;;;;9.00;5.20;;;;;;;13.69;72.38;101770.23;106644;1252;64552;-75
2023/05/13 19:10:06;;;;;;;11.20;5.50;;;;;;;13.61;73.90;101769.92;107065;1249;61069;-75
2023/05/13 19:12:35;;;;;;;13.10;5.80;;;;;;;13.60;74.53;101766.35;107125;1247;63236;-73
2023/05/13 19:15:04;;;;;;;10.50;6.00;;;;;;;13.56;75.02;101764.98;107073;1247;72160;-72
2023/05/13 19:17:33;;;;;;;8.90;5.20;;;;;;;13.56;75.35;101762.21;106742;1255;60505;-73
2023/05/13 19:20:05;;;;;;;10.00;5.60;;;;;;;13.54;75.80;101763.40;107182;1247;73069;-74
2023/05/13 19:22:33;;;;;;;9.90;6.00;;;;;;;13.53;75.96;101761.71;107424;1248;58973;-79
2023/05/13 19:25:04;;;;;;;11.40;6.20;;;;;;;13.52;76.07;101763.54;107210;1248;59008;-73
2023/05/13 19:27:32;;;;;;;10.30;5.60;;;;;;;13.49;76.53;101763.16;107240;1248;72615;-73
2023/05/13 19:30:02;;;;;;;8.80;6.10;;;;;;;13.48;75.55;101762.40;107148;1248;61737;-73
2023/05/13 19:32:31;;;;;;;11.50;6.00;;;;;;;13.45;75.54;101757.85;107061;1247;70442;-72
2023/05/13 19:35:00;;;;;;;14.30;6.60;;;;;;;13.39;76.34;101757.57;107020;1248;73356;-75
2023/05/13 19:37:29;;;;;;;12.70;6.10;;;;;;;13.33;75.86;101755.70;107084;1248;61099;-71
2023/05/13 19:39:58;;;;;;;12.80;6.70;;;;;;;13.29;76.04;101757.20;106525;1252;59035;-72
2023/05/13 19:42:27;;;;;;;11.40;6.40;;;;;;;13.27;76.52;101758.44;106941;1251;61493;-74
2023/05/13 19:44:56;;;;;;;9.80;6.50;;;;;;;13.16;76.61;101748.80;106607;1249;61576;-71
2023/05/13 19:47:25;;;;;;;11.80;6.30;;;;;;;13.14;76.49;101749.95;106458;1251;69977;-73
2023/05/13 19:49:55;;;;;;;14.00;5.90;;;;;;;13.08;76.67;101754.05;107485;1251;73377;-78
2023/05/13 19:52:23;;;;;;;14.50;6.40;;;;;;;13.03;77.15;101750.00;106862;1260;58838;-77
2023/05/13 19:54:52;;;;;;;14.80;6.60;;;;;;;12.97;77.99;101750.04;106676;1251;59392;-74
2023/05/13 19:57:21;;;;;;;12.60;6.20;;;;;;;12.91;78.32;101751.85;106920;1249;71880;-76
2023/05/13 19:59:50;;;;;;;12.10;6.60;;;;;;;12.80;79.42;101750.48;107183;1247;72693;-75
2023/05/13 20:02:19;;;;;;;12.30;5.90;;;;;;;12.69;79.52;101747.98;106889;1251;59159;-74
2023/05/13 20:04:48;;;;;;;11.80;6.10;;;;;;;12.56;79.53;101747.65;107377;1247;73885;-73
2023/05/13 20:07:17;;;;;;;8.90;6.20;;;;;;;12.43;80.00;101747.75;106789;1251;57829;-76
2023/05/13 20:09:46;;;;;;;10.40;5.90;;;;;;;12.30;82.73;101751.05;106762;1250;59082;-77
2023/05/13 20:12:15;;;;;;;11.80;5.80;;;;;;;12.18;84.33;101755.44;106988;1247;61642;-76
2023/05/13 20:14:50;;;;;;;9.50;5.60;;;;;;;12.08;85.81;101754.69;107008;1260;72504;-76
2023/05/13 20:17:20;;;;;;;11.10;6.50;;;;;;;12.00;87.33;101754.70;106961;1251;60400;-76
2023/05/13 20:19:50;;;;;;;13.50;7.00;;;;;;;11.90;90.31;101751.95;106798;1252;74282;-73
2023/05/13 20:22:20;;;;;;;11.70;6.80;;;;;;;11.83;90.84;101753.25;106915;1256;59042;-74
2023/05/13 20:24:50;;;;;;;12.90;6.00;;;;;;;11.75;91.62;101752.66;106843;1258;60211;-73
2023/05/13 20:27:19;;;;;;;11.70;6.70;;;;;;;11.68;92.25;101752.21;106918;1260;62716;-75
2023/05/13 20:29:48;;;;;;;10.40;6.70;;;;;;;11.61;92.29;101745.66;106906;1248;71470;-74
2023/05/13 20:32:20;;;;;;;15.00;7.30;;;;;;;11.55;91.10;101745.86;106818;1252;70700;-73
2023/05/13 20:34:50;;;;;;;12.80;6.90;;;;;;;11.44;92.73;101748.62;106837;1251;73854;-74
2023/05/13 20:37:21;;;;;;;14.50;7.40;;;;;;;11.34;93.26;101750.39;106872;1250;63800;-75
2023/05/13 20:39:51;;;;;;;13.40;8.40;;;;;;;11.25;92.71;101749.73;106939;1247;57751;-75
2023/05/13 20:42:21;;;;;;;11.80;7.60;;;;;;;11.14;92.67;101750.05;107157;1259;62174;-75
2023/05/13 20:44:50;;;;;;;13.60;7.30;;;;;;;11.06;90.75;101752.95;107009;1258;61655;-74
2023/05/13 20:47:19;;;;;;;10.60;6.80;;;;;;;10.92;92.51;101753.37;107094;1251;69703;-75
2023/05/13 20:49:48;;;;;;;12.30;7.10;;;;;;;10.75;94.07;101753.13;107014;1260;62446;-76
2023/05/13 20:52:17;;;;;;;14.40;6.90;;;;;;;10.65;95.22;101753.21;106889;1251;58835;-75
2023/05/13 20:54:46;;;;;;;11.60;7.20;;;;;;;10.53;96.81;101753.89;106842;1249;60452;-76
2023/05/13 20:57:14;;;;;;;10.50;6.50;;;;;;;10.43;98.41;101758.40;106887;1247;73563;-75
2023/05/13 20:59:43;;;;;;;10.10;6.80;;;;;;;10.35;99.23;101756.23;106895;1248;72681;-76
2023/05/13 21:02:12;;;;;;;11.50;6.80;;;;;;;10.29;98.81;101757.97;107037;1248;61941;-76